createdAt,value
2023-03-23T15:58:18.131Z,8.63
2023-03-23T16:00:49.683Z,8.45
2023-03-23T16:03:48.615Z,8.35
2023-03-23T16:06:25.427Z,6.68
2023-03-23T16:08:57.585Z,8.35
2023-03-23T16:11:28.306Z,12.50
2023-03-23T16:13:56.832Z,11.15
2023-03-23T16:16:40.407Z,11.43
2023-03-23T16:19:11.982Z,8.25
2023-03-23T16:21:41.460Z,7.00
2023-03-23T16:24:10.208Z,7.28
2023-03-23T16:26:37.959Z,6.40
2023-03-23T16:29:24.420Z,6.20
2023-03-23T16:32:01.785Z,5.40
2023-03-23T16:34:33.349Z,6.93
2023-03-23T16:37:00.850Z,4.32
2023-03-23T16:39:28.757Z,8.43
2023-03-23T16:41:56.124Z,4.90
2023-03-23T16:44:23.494Z,6.78
2023-03-23T16:46:50.922Z,7.10
2023-03-23T16:49:18.351Z,15.02
2023-03-23T16:51:45.686Z,15.63
2023-03-23T16:54:13.182Z,14.73
2023-03-23T16:56:41.136Z,16.20
2023-03-23T16:59:08.483Z,16.73
2023-03-23T17:01:35.880Z,12.55
2023-03-23T17:04:03.230Z,15.45
2023-03-23T17:06:30.765Z,15.25
2023-03-23T17:08:58.051Z,15.77
2023-03-23T17:11:25.184Z,13.27
2023-03-23T17:13:52.418Z,14.95
2023-03-23T17:16:19.714Z,13.52
2023-03-23T17:18:47.230Z,14.85
2023-03-23T17:21:14.383Z,13.20
2023-03-23T17:23:41.954Z,14.15
2023-03-23T17:26:09.183Z,15.32
2023-03-23T17:28:36.579Z,15.50
2023-03-23T17:31:03.926Z,14.57
2023-03-23T17:33:31.206Z,14.30
2023-03-23T17:35:58.405Z,14.00
2023-03-23T17:38:25.774Z,13.55
2023-03-23T17:40:59.975Z,14.75
2023-03-23T17:43:27.666Z,11.43
2023-03-23T17:45:54.583Z,15.48
2023-03-23T17:48:23.410Z,11.63
2023-03-23T17:50:57.877Z,9.20
2023-03-23T17:53:26.824Z,11.68
2023-03-23T17:55:54.192Z,13.43
2023-03-23T17:58:21.576Z,15.75
2023-03-23T18:00:48.716Z,16.00
2023-03-23T18:03:16.227Z,16.90
2023-03-23T18:05:44.237Z,17.08
2023-03-23T18:08:12.321Z,18.95
2023-03-23T18:10:41.026Z,19.20
2023-03-23T18:13:09.048Z,19.45
2023-03-23T18:15:37.397Z,19.27
2023-03-23T18:18:06.153Z,18.95
2023-03-23T18:20:34.155Z,21.15
2023-03-23T18:23:01.420Z,20.15
2023-03-23T18:25:28.663Z,19.48
2023-03-23T18:27:56.717Z,16.85
2023-03-23T18:30:32.811Z,16.85
2023-03-23T18:33:00.251Z,19.92
2023-03-23T18:35:28.251Z,13.30
2023-03-23T18:37:56.014Z,16.15
2023-03-23T18:40:23.254Z,15.85
2023-03-23T18:42:50.579Z,16.52
2023-03-23T18:45:17.878Z,14.77
2023-03-23T18:47:45.331Z,17.20
2023-03-23T18:50:12.830Z,15.48
2023-03-23T18:52:40.635Z,18.77
2023-03-23T18:55:08.393Z,16.15
2023-03-23T18:57:35.856Z,17.23
2023-03-23T19:00:07.015Z,18.52
2023-03-23T19:02:35.662Z,19.52
2023-03-23T19:05:03.021Z,16.13
2023-03-23T19:07:31.335Z,18.85
2023-03-23T19:09:58.756Z,17.02
2023-03-23T19:12:26.389Z,16.50
2023-03-23T19:14:54.068Z,13.13
2023-03-23T19:17:21.180Z,16.10
2023-03-23T19:19:48.906Z,15.93
2023-03-23T19:22:16.146Z,14.65
2023-03-23T19:24:43.403Z,19.92
2023-03-23T19:27:11.062Z,16.30
2023-03-23T19:29:38.468Z,15.30
2023-03-23T19:32:06.674Z,21.10
2023-03-23T19:34:34.191Z,19.30
2023-03-23T19:37:06.026Z,14.20
2023-03-23T19:39:35.085Z,15.43
2023-03-23T19:42:04.352Z,15.95
2023-03-23T19:44:32.356Z,17.63
2023-03-23T19:47:02.924Z,14.10
2023-03-23T19:49:30.599Z,16.58
2023-03-23T19:52:09.079Z,14.05
2023-03-23T19:54:40.914Z,16.17
2023-03-23T19:57:10.253Z,15.50
2023-03-23T19:59:39.330Z,15.93
2023-03-23T20:02:07.404Z,12.77
2023-03-23T20:04:35.721Z,16.73
2023-03-23T20:07:07.211Z,15.95
2023-03-23T20:09:35.873Z,14.98
2023-03-23T20:12:04.971Z,15.68
2023-03-23T20:14:33.232Z,15.30
2023-03-23T20:17:01.136Z,11.55
2023-03-23T20:19:28.796Z,16.38
2023-03-23T20:21:56.431Z,13.85
2023-03-23T20:24:23.840Z,15.15
2023-03-23T20:26:51.525Z,15.88
2023-03-23T20:29:18.600Z,14.30
2023-03-23T20:31:47.335Z,13.55
2023-03-23T20:34:29.134Z,14.95
2023-03-23T20:36:58.530Z,11.20
2023-03-23T20:39:29.467Z,14.93
2023-03-23T20:42:02.128Z,13.25
2023-03-23T20:46:59.642Z,14.23
2023-03-23T20:49:27.883Z,16.80
2023-03-23T20:51:55.085Z,13.45
2023-03-23T20:54:23.007Z,13.40
2023-03-23T20:56:50.858Z,13.88
2023-03-23T20:59:20.213Z,13.00
2023-03-23T21:01:50.807Z,12.50
2023-03-23T21:04:20.787Z,11.98
2023-03-23T21:06:49.330Z,14.48
2023-03-23T21:09:17.836Z,15.88
2023-03-23T21:11:46.532Z,14.63
2023-03-23T21:14:14.093Z,13.85
2023-03-23T21:16:42.518Z,18.73
2023-03-23T21:19:10.697Z,12.48
2023-03-23T21:21:56.797Z,11.75
2023-03-23T21:24:29.546Z,11.98
2023-03-23T21:27:02.275Z,11.68
2023-03-23T21:29:31.165Z,15.48
2023-03-23T21:34:29.394Z,12.82
2023-03-23T21:36:56.775Z,12.75
2023-03-23T21:39:24.520Z,12.85
2023-03-23T21:41:52.146Z,11.38
2023-03-23T21:44:26.243Z,12.13
2023-03-23T21:46:54.712Z,13.43
2023-03-23T21:49:22.696Z,12.82
2023-03-23T21:51:50.433Z,12.07
2023-03-23T21:54:17.831Z,11.18
2023-03-23T21:56:45.134Z,11.93
2023-03-23T21:59:12.475Z,13.60
2023-03-23T22:01:40.661Z,14.93
2023-03-23T22:04:07.923Z,13.65
2023-03-23T22:06:35.074Z,13.68
2023-03-23T22:09:05.652Z,13.48
2023-03-23T22:11:33.175Z,15.23
2023-03-23T22:14:01.443Z,10.25
2023-03-23T22:16:29.653Z,12.55
2023-03-23T22:19:00.345Z,13.23
2023-03-23T22:21:29.190Z,12.45
2023-03-23T22:23:59.994Z,13.52
2023-03-23T22:26:29.746Z,10.55
2023-03-23T22:28:58.856Z,13.32
2023-03-23T22:31:30.585Z,12.32
2023-03-23T22:33:58.243Z,12.77
2023-03-23T22:36:31.387Z,11.75
2023-03-23T22:38:58.746Z,9.45
2023-03-23T22:41:32.702Z,11.20
2023-03-23T22:44:01.057Z,12.98
2023-03-23T22:46:28.887Z,12.35
2023-03-23T22:48:56.308Z,14.52
2023-03-23T22:51:24.907Z,10.80
2023-03-23T22:53:52.702Z,10.02
2023-03-23T22:56:20.356Z,13.02
2023-03-23T22:58:47.733Z,13.32
2023-03-23T23:01:20.180Z,11.48
2023-03-23T23:03:48.368Z,11.95
2023-03-23T23:06:17.164Z,11.77
2023-03-23T23:08:45.939Z,12.75
2023-03-23T23:11:17.266Z,15.38
2023-03-23T23:13:45.784Z,12.90
2023-03-23T23:16:14.277Z,13.95
2023-03-23T23:18:42.721Z,11.20
2023-03-23T23:21:14.803Z,12.25
2023-03-23T23:23:42.786Z,11.93
2023-03-23T23:26:10.221Z,11.90
2023-03-23T23:28:37.807Z,11.57
2023-03-23T23:31:06.807Z,9.98
2023-03-23T23:33:33.945Z,9.40
2023-03-23T23:36:01.927Z,12.82
2023-03-23T23:38:29.867Z,13.63
2023-03-23T23:40:57.854Z,12.65
2023-03-23T23:43:25.009Z,11.20
2023-03-23T23:45:53.063Z,9.65
2023-03-23T23:48:20.312Z,16.15
2023-03-23T23:50:50.861Z,13.52
2023-03-23T23:53:23.209Z,14.50
2023-03-23T23:55:50.587Z,10.15
2023-03-23T23:58:22.043Z,12.50
